Time;durP1;ratioP1;P1;durP2;ratioP2;P2;SDS_P1;SDS_P2;PMS_P1;PMS_P2;Temp;Humidity;BMP_temperature;BMP_pressure;BME280_temperature;BME280_humidity;BME280_pressure;Samples;Min_cycle;Max_cycle;Signal;HPM_P1;HPM_P2
2021/04/03 00:00:55;;;;;;;21.77;5.97;;;3.30;99.90;;;;;;5043055;28;20809;-70
2021/04/03 00:03:26;;;;;;;18.15;5.38;;;3.30;99.90;;;;;;5045054;28;20091;-68
2021/04/03 00:05:54;;;;;;;15.45;4.93;;;3.30;99.90;;;;;;5045197;28;20037;-71
2021/04/03 00:08:24;;;;;;;12.85;5.03;;;3.40;99.90;;;;;;5048767;28;20041;-70
2021/04/03 00:10:52;;;;;;;24.15;5.72;;;3.50;99.90;;;;;;5049436;28;20174;-69
2021/04/03 00:13:20;;;;;;;19.40;4.95;;;3.50;99.90;;;;;;5048421;28;20053;-71
2021/04/03 00:15:47;;;;;;;14.52;5.63;;;3.40;99.90;;;;;;5049217;28;20033;-67
2021/04/03 00:18:14;;;;;;;17.00;6.40;;;3.50;99.90;;;;;;5065405;28;20048;-71
2021/04/03 00:20:40;;;;;;;24.67;6.10;;;3.40;99.90;;;;;;5040576;28;20048;-66
2021/04/03 00:23:06;;;;;;;15.23;6.30;;;3.40;99.90;;;;;;5046659;28;20099;-69
2021/04/03 00:25:32;;;;;;;24.58;7.25;;;3.40;99.90;;;;;;5041080;28;20043;-68
2021/04/03 00:28:00;;;;;;;24.08;7.28;;;3.40;99.90;;;;;;5054040;28;20044;-67
2021/04/03 00:30:26;;;;;;;20.70;7.75;;;3.40;99.90;;;;;;5049916;28;20051;-66
2021/04/03 00:32:55;;;;;;;18.48;6.97;;;3.40;99.90;;;;;;5049627;28;20037;-67
2021/04/03 00:35:25;;;;;;;21.90;6.20;;;3.40;99.90;;;;;;5049106;28;20037;-67
2021/04/03 00:37:52;;;;;;;19.13;6.78;;;3.40;99.90;;;;;;5066130;28;20055;-67
2021/04/03 00:40:26;;;;;;;17.80;6.90;;;3.40;99.90;;;;;;5048927;28;20045;-68
2021/04/03 00:42:52;;;;;;;18.52;5.70;;;3.30;99.90;;;;;;5048212;28;20037;-68
2021/04/03 00:45:20;;;;;;;22.20;6.50;;;3.30;99.90;;;;;;5049387;28;20045;-68
2021/04/03 00:47:46;;;;;;;24.83;6.55;;;3.40;99.90;;;;;;5049331;28;20037;-69
2021/04/03 00:50:14;;;;;;;13.18;5.30;;;3.40;99.90;;;;;;5056428;28;20063;-68
2021/04/03 00:52:41;;;;;;;11.70;4.55;;;3.20;99.90;;;;;;5064842;28;20039;-68
2021/04/03 00:55:10;;;;;;;11.45;4.13;;;2.90;99.90;;;;;;5048296;28;20049;-67
2021/04/03 00:57:36;;;;;;;12.23;3.85;;;2.60;99.90;;;;;;5056482;28;20043;-67
2021/04/03 01:00:04;;;;;;;7.20;3.85;;;2.40;99.90;;;;;;5061526;28;20119;-67
2021/04/03 01:02:30;;;;;;;17.35;4.55;;;2.20;99.90;;;;;;5063915;28;20095;-67
2021/04/03 01:04:57;;;;;;;16.13;5.22;;;2.10;99.90;;;;;;5064631;28;20044;-67
2021/04/03 01:07:22;;;;;;;20.02;4.57;;;2.10;99.90;;;;;;5064699;28;20037;-69
2021/04/03 01:09:48;;;;;;;27.00;5.53;;;2.10;99.90;;;;;;5051437;28;20453;-67
2021/04/03 01:12:35;;;;;;;16.35;4.97;;;2.10;99.90;;;;;;5056046;28;20075;-70
2021/04/03 01:15:08;;;;;;;22.75;4.88;;;2.10;99.90;;;;;;5048336;28;20088;-70
2021/04/03 01:18:05;;;;;;;28.73;5.85;;;2.10;99.90;;;;;;5046853;28;20059;-70
2021/04/03 01:20:57;;;;;;;18.95;5.35;;;2.00;99.90;;;;;;5031603;28;20048;-67
2021/04/03 01:23:41;;;;;;;22.05;5.53;;;2.00;99.90;;;;;;5030524;28;20106;-71
2021/04/03 01:26:31;;;;;;;28.92;4.75;;;2.00;99.90;;;;;;5046099;28;20116;-69
2021/04/03 01:29:17;;;;;;;28.30;5.03;;;2.00;99.90;;;;;;5023020;28;20690;-67
2021/04/03 01:31:44;;;;;;;20.85;4.63;;;2.00;99.90;;;;;;4997518;28;20038;-66
2021/04/03 01:34:17;;;;;;;24.90;5.88;;;1.90;99.90;;;;;;4991699;28;20072;-70
2021/04/03 01:36:43;;;;;;;20.13;5.38;;;2.00;99.90;;;;;;4991885;28;20430;-67
2021/04/03 01:39:16;;;;;;;19.20;4.03;;;2.10;99.90;;;;;;4992224;28;20037;-69
2021/04/03 01:41:45;;;;;;;25.30;4.20;;;2.20;99.90;;;;;;4991595;28;20037;-70
2021/04/03 01:44:15;;;;;;;19.17;3.88;;;2.20;99.90;;;;;;4992909;28;20125;-70
2021/04/03 01:46:44;;;;;;;17.33;4.30;;;2.20;99.90;;;;;;5020121;28;20041;-67
2021/04/03 01:49:13;;;;;;;22.98;4.50;;;2.30;99.90;;;;;;5036088;28;20048;-70
2021/04/03 01:51:46;;;;;;;19.30;4.93;;;2.30;99.90;;;;;;5028157;28;20041;-66
2021/04/03 01:54:14;;;;;;;27.25;5.30;;;2.30;99.90;;;;;;5027779;28;20091;-68
2021/04/03 01:56:45;;;;;;;22.50;5.95;;;2.40;99.90;;;;;;5029595;28;20059;-67
2021/04/03 01:59:12;;;;;;;19.90;5.43;;;2.30;99.90;;;;;;5052329;28;20038;-70
2021/04/03 02:01:40;;;;;;;25.58;5.15;;;2.40;99.90;;;;;;5029055;28;20033;-70
2021/04/03 02:04:11;;;;;;;23.83;5.13;;;2.40;99.90;;;;;;5030424;28;20044;-70
2021/04/03 02:06:43;;;;;;;26.00;5.57;;;2.50;99.90;;;;;;5030479;28;20041;-67
2021/04/03 02:09:12;;;;;;;24.42;6.45;;;2.50;99.90;;;;;;5029980;28;20040;-68
2021/04/03 02:11:41;;;;;;;28.75;6.82;;;2.40;99.90;;;;;;5029890;28;20041;-68
2021/04/03 02:14:07;;;;;;;24.77;5.22;;;2.40;99.90;;;;;;5047478;28;20048;-69
2021/04/03 02:16:39;;;;;;;21.05;4.45;;;2.40;99.90;;;;;;4998060;28;20046;-69
2021/04/03 02:19:07;;;;;;;18.27;4.38;;;2.20;99.90;;;;;;5007234;28;20433;-70
2021/04/03 02:21:34;;;;;;;33.33;5.35;;;2.30;99.90;;;;;;5006980;28;20040;-68
2021/04/03 02:24:02;;;;;;;13.48;4.65;;;2.20;99.90;;;;;;5006635;28;20137;-69
2021/04/03 02:26:36;;;;;;;18.35;4.72;;;2.20;99.90;;;;;;5025572;28;20045;-70
2021/04/03 02:29:04;;;;;;;22.35;4.80;;;2.30;99.90;;;;;;5025140;28;20033;-67
2021/04/03 02:31:32;;;;;;;22.95;4.80;;;2.20;99.90;;;;;;5024864;28;20041;-68
2021/04/03 02:33:58;;;;;;;18.70;4.63;;;2.20;99.90;;;;;;5028228;28;20042;-69
2021/04/03 02:36:24;;;;;;;20.67;4.65;;;2.20;99.90;;;;;;5048306;28;20200;-69
2021/04/03 02:38:51;;;;;;;26.73;4.68;;;2.10;99.90;;;;;;5038241;28;20164;-67
2021/04/03 02:41:37;;;;;;;19.13;3.92;;;2.10;99.90;;;;;;5042884;28;20041;-69
2021/04/03 02:44:45;;;;;;;20.77;3.33;;;2.10;99.90;;;;;;5042745;28;20056;-67
2021/04/03 02:47:17;;;;;;;21.35;3.63;;;2.10;99.90;;;;;;5043479;28;20042;-70
2021/04/03 02:49:53;;;;;;;19.25;3.67;;;2.10;99.90;;;;;;5047367;28;20045;-66
2021/04/03 02:52:20;;;;;;;27.90;5.53;;;2.20;99.90;;;;;;5063404;28;20040;-67
2021/04/03 02:54:49;;;;;;;24.42;4.53;;;2.10;99.90;;;;;;5046956;28;20044;-71
2021/04/03 02:57:16;;;;;;;23.40;3.85;;;2.10;99.90;;;;;;5053386;28;20041;-68
2021/04/03 02:59:55;;;;;;;31.95;5.28;;;2.10;99.90;;;;;;5057496;28;20045;-68
2021/04/03 03:02:23;;;;;;;19.20;4.22;;;2.00;99.90;;;;;;5038267;28;20039;-67
2021/04/03 03:04:50;;;;;;;26.00;5.70;;;2.10;99.90;;;;;;5026927;28;20045;-67
2021/04/03 03:07:17;;;;;;;32.58;4.35;;;2.20;99.90;;;;;;5039184;28;20048;-69
2021/04/03 03:09:48;;;;;;;33.60;5.18;;;2.10;99.90;;;;;;5047509;28;20083;-68
2021/04/03 03:12:16;;;;;;;29.67;5.13;;;2.20;99.90;;;;;;5062992;28;20113;-68
2021/04/03 03:14:44;;;;;;;26.52;6.30;;;2.10;99.90;;;;;;5048630;28;20661;-68
2021/04/03 03:17:12;;;;;;;22.48;5.57;;;2.20;99.90;;;;;;5062160;28;20091;-69
2021/04/03 03:19:39;;;;;;;29.65;5.40;;;2.20;99.90;;;;;;5062744;28;20041;-70
2021/04/03 03:22:06;;;;;;;24.55;4.13;;;2.10;99.90;;;;;;5062835;28;20037;-67
2021/04/03 03:24:36;;;;;;;22.73;4.88;;;2.00;99.90;;;;;;5058865;28;20034;-67
2021/04/03 03:27:04;;;;;;;33.65;5.47;;;2.10;99.90;;;;;;5043617;28;20049;-70
2021/04/03 03:29:32;;;;;;;20.83;4.07;;;2.00;99.90;;;;;;5047274;28;20077;-70
2021/04/03 03:31:58;;;;;;;22.45;4.35;;;2.00;99.90;;;;;;5061371;28;20048;-67
2021/04/03 03:34:25;;;;;;;30.50;4.15;;;2.00;99.90;;;;;;5047194;28;20749;-68
2021/04/03 03:36:51;;;;;;;22.10;4.57;;;1.90;99.90;;;;;;5045274;28;20040;-67
2021/04/03 03:39:17;;;;;;;25.75;4.18;;;1.80;99.90;;;;;;5045334;28;20147;-67
2021/04/03 03:41:43;;;;;;;25.38;4.22;;;1.80;99.90;;;;;;5048066;28;20048;-69
2021/04/03 03:44:10;;;;;;;27.48;4.47;;;1.70;99.90;;;;;;5050177;28;20136;-69
2021/04/03 03:46:36;;;;;;;21.17;3.90;;;1.70;99.90;;;;;;5048684;28;20087;-68
2021/04/03 03:49:03;;;;;;;24.30;3.72;;;1.70;99.90;;;;;;5032116;28;20033;-67
2021/04/03 03:51:29;;;;;;;19.55;3.60;;;1.60;99.90;;;;;;5030983;28;20037;-67
2021/04/03 03:53:56;;;;;;;26.67;4.72;;;1.70;99.90;;;;;;5046192;28;20045;-70
2021/04/03 03:56:22;;;;;;;33.72;4.53;;;1.60;99.90;;;;;;5050612;28;20102;-67
2021/04/03 03:58:47;;;;;;;26.52;4.10;;;1.70;99.90;;;;;;5066033;28;20432;-68
2021/04/03 04:01:13;;;;;;;30.23;5.03;;;1.70;99.90;;;;;;5048895;28;20033;-66
2021/04/03 04:03:39;;;;;;;39.47;4.72;;;1.80;99.90;;;;;;5066029;28;20128;-68
2021/04/03 04:06:05;;;;;;;20.13;3.42;;;1.80;99.90;;;;;;5049303;28;20556;-70
2021/04/03 04:08:32;;;;;;;17.48;3.67;;;1.80;99.90;;;;;;5049280;28;20098;-69
2021/04/03 04:10:58;;;;;;;21.95;3.38;;;1.80;99.90;;;;;;5062337;28;20444;-66
2021/04/03 04:13:24;;;;;;;30.50;4.57;;;1.80;99.90;;;;;;5066856;28;20041;-68
2021/04/03 04:15:54;;;;;;;25.17;3.85;;;1.80;99.90;;;;;;5067216;28;20076;-69
2021/04/03 04:18:39;;;;;;;29.17;5.05;;;1.80;99.90;;;;;;5049577;28;20063;-66
2021/04/03 04:21:05;;;;;;;28.50;4.60;;;1.90;99.90;;;;;;5048682;28;20041;-66
2021/04/03 04:23:31;;;;;;;21.17;4.03;;;1.90;99.90;;;;;;5049434;28;20091;-67
2021/04/03 04:25:57;;;;;;;35.92;4.90;;;1.80;99.90;;;;;;5049832;28;20045;-69
2021/04/03 04:28:23;;;;;;;27.20;4.50;;;1.80;99.90;;;;;;5056262;28;20091;-66
2021/04/03 04:30:49;;;;;;;24.75;5.15;;;1.70;99.90;;;;;;5049496;28;20387;-66
2021/04/03 04:33:14;;;;;;;27.10;4.72;;;1.70;99.90;;;;;;5048430;28;20041;-67
2021/04/03 04:35:40;;;;;;;32.22;4.47;;;1.80;99.90;;;;;;5048285;28;20044;-68
2021/04/03 04:38:06;;;;;;;25.27;4.45;;;1.80;99.90;;;;;;5047470;28;20104;-72
2021/04/03 04:40:32;;;;;;;34.05;5.20;;;1.90;99.90;;;;;;5054622;28;20041;-71
2021/04/03 04:42:58;;;;;;;24.40;3.85;;;1.90;99.90;;;;;;5045001;28;20049;-71
2021/04/03 04:45:24;;;;;;;27.23;4.80;;;1.90;99.90;;;;;;5028528;28;20071;-67
2021/04/03 04:47:50;;;;;;;21.85;4.30;;;1.90;99.90;;;;;;5029423;28;20037;-69
2021/04/03 04:50:17;;;;;;;30.80;4.43;;;1.90;99.90;;;;;;5028531;28;20072;-70
2021/04/03 04:52:43;;;;;;;22.02;4.60;;;2.00;99.90;;;;;;5028825;28;20104;-70
2021/04/03 04:55:09;;;;;;;20.58;4.53;;;2.00;99.90;;;;;;5045074;28;20494;-70
2021/04/03 04:57:35;;;;;;;28.42;4.47;;;2.00;99.90;;;;;;5041309;28;20045;-69
2021/04/03 05:00:01;;;;;;;26.77;4.38;;;2.00;99.90;;;;;;5056306;28;20555;-69
2021/04/03 05:02:30;;;;;;;25.55;4.85;;;2.00;99.90;;;;;;5047877;28;20041;-70
2021/04/03 05:04:56;;;;;;;31.95;5.85;;;2.00;99.90;;;;;;5047716;28;20383;-69
2021/04/03 05:07:22;;;;;;;29.15;4.30;;;2.00;99.90;;;;;;5047082;28;20059;-69
2021/04/03 05:09:48;;;;;;;27.50;5.90;;;2.00;99.90;;;;;;5041054;28;20045;-70
2021/04/03 05:12:14;;;;;;;23.52;3.90;;;2.10;99.90;;;;;;5047940;28;20099;-71
2021/04/03 05:14:39;;;;;;;30.77;4.78;;;2.00;99.90;;;;;;5048166;28;20037;-68
2021/04/03 05:17:05;;;;;;;32.65;5.82;;;2.00;99.90;;;;;;5064389;28;20043;-71
2021/04/03 05:19:32;;;;;;;19.67;4.55;;;2.00;99.90;;;;;;5065024;28;20037;-70
2021/04/03 05:21:58;;;;;;;25.40;4.65;;;2.00;99.90;;;;;;5066282;28;20037;-69
2021/04/03 05:24:24;;;;;;;24.63;4.47;;;2.10;99.90;;;;;;5065332;28;20045;-68
2021/04/03 05:26:50;;;;;;;25.77;4.05;;;2.10;99.90;;;;;;5065327;28;20048;-70
2021/04/03 05:29:16;;;;;;;19.73;5.18;;;2.10;99.90;;;;;;5048338;28;20040;-68
2021/04/03 05:31:41;;;;;;;21.70;4.35;;;2.00;99.90;;;;;;5063830;28;20045;-68
2021/04/03 05:34:07;;;;;;;21.10;4.82;;;2.10;99.90;;;;;;5064364;28;20045;-70
2021/04/03 05:36:33;;;;;;;21.30;3.92;;;2.10;99.90;;;;;;5064427;28;20045;-71
2021/04/03 05:38:59;;;;;;;29.63;4.30;;;2.00;99.90;;;;;;5064316;28;20045;-68
2021/04/03 05:41:25;;;;;;;20.10;5.57;;;2.10;99.90;;;;;;5064576;28;20044;-68
2021/04/03 05:43:53;;;;;;;23.98;4.00;;;2.10;99.90;;;;;;5062758;28;20120;-67
2021/04/03 05:46:19;;;;;;;20.20;4.65;;;1.90;99.90;;;;;;5047436;28;20041;-68
2021/04/03 05:48:46;;;;;;;23.63;4.57;;;2.00;99.90;;;;;;5048946;28;20580;-69
2021/04/03 05:51:16;;;;;;;41.78;6.05;;;2.10;99.90;;;;;;5047476;28;20474;-70
2021/04/03 05:53:42;;;;;;;22.77;4.35;;;2.10;99.90;;;;;;5047270;28;20043;-68
2021/04/03 05:56:09;;;;;;;38.25;5.03;;;2.10;99.90;;;;;;5046913;28;20041;-67
2021/04/03 05:58:37;;;;;;;19.70;4.20;;;2.20;99.90;;;;;;5050783;28;20041;-68
2021/04/03 06:01:05;;;;;;;28.15;4.38;;;2.20;99.90;;;;;;5050776;28;20494;-68
2021/04/03 06:03:32;;;;;;;26.73;5.05;;;2.20;99.90;;;;;;5046284;28;20043;-70
2021/04/03 06:05:59;;;;;;;22.95;3.90;;;2.30;99.90;;;;;;5059487;28;20045;-68
2021/04/03 06:08:32;;;;;;;22.08;4.68;;;2.40;99.90;;;;;;5046210;28;20041;-69
2021/04/03 06:11:14;;;;;;;16.65;4.25;;;2.50;99.90;;;;;;5045323;28;20032;-68
2021/04/03 06:14:01;;;;;;;23.38;5.80;;;2.50;99.90;;;;;;5044859;28;20044;-67
2021/04/03 06:16:28;;;;;;;;;;;2.40;99.90;;;;;;5045017;28;20049;-67
2021/04/03 06:19:11;;;;;;;30.83;5.45;;;2.40;99.90;;;;;;5045638;28;20412;-69
2021/04/03 06:21:38;;;;;;;30.73;5.50;;;2.40;99.90;;;;;;5056968;28;20041;-69
2021/04/03 06:24:16;;;;;;;29.08;5.47;;;2.30;99.90;;;;;;5047035;28;20049;-65
2021/04/03 06:26:52;;;;;;;26.17;5.90;;;2.40;99.90;;;;;;5048666;28;20045;-69
2021/04/03 06:29:49;;;;;;;20.38;5.13;;;2.50;99.90;;;;;;5048438;28;20064;-68
2021/04/03 06:32:26;;;;;;;28.25;6.35;;;2.50;99.90;;;;;;5051990;28;20049;-69
2021/04/03 06:34:55;;;;;;;22.10;5.22;;;2.50;99.90;;;;;;5046426;28;20082;-67
2021/04/03 06:37:35;;;;;;;22.63;5.43;;;2.50;99.90;;;;;;5044717;28;20148;-68
2021/04/03 06:40:12;;;;;;;21.35;5.38;;;2.60;99.90;;;;;;5041311;28;20037;-71
2021/04/03 06:42:51;;;;;;;22.33;4.88;;;2.50;99.90;;;;;;5042332;28;20037;-66
2021/04/03 06:45:31;;;;;;;31.77;5.07;;;2.60;99.90;;;;;;5045781;28;20041;-68
2021/04/03 06:48:05;;;;;;;30.40;5.57;;;2.50;99.90;;;;;;5063116;28;20482;-71
2021/04/03 06:50:32;;;;;;;29.33;7.75;;;2.70;99.90;;;;;;5062682;28;20091;-66
2021/04/03 06:53:05;;;;;;;44.10;6.38;;;2.70;99.90;;;;;;5062814;28;20481;-69
2021/04/03 06:55:31;;;;;;;23.42;5.53;;;2.80;99.90;;;;;;5062979;28;20592;-70
2021/04/03 06:57:59;;;;;;;32.50;6.22;;;2.80;99.90;;;;;;5054805;28;20048;-68
2021/04/03 07:00:26;;;;;;;49.70;11.07;;;3.10;99.90;;;;;;5050629;28;20091;-70
2021/04/03 07:02:59;;;;;;;34.38;5.68;;;3.30;99.90;;;;;;5026124;28;20049;-68
2021/04/03 07:05:31;;;;;;;26.35;5.60;;;3.30;99.90;;;;;;5026202;28;20052;-67
2021/04/03 07:07:58;;;;;;;22.98;5.90;;;3.40;99.90;;;;;;5043186;28;20079;-73
2021/04/03 07:10:30;;;;;;;36.03;6.55;;;3.40;99.90;;;;;;5046334;28;20044;-67
2021/04/03 07:12:57;;;;;;;25.98;6.05;;;3.50;99.90;;;;;;5044944;28;20102;-68
2021/04/03 07:15:24;;;;;;;26.30;5.72;;;3.50;99.90;;;;;;5045245;28;20128;-70
2021/04/03 07:17:51;;;;;;;21.10;5.35;;;3.30;99.90;;;;;;5047105;28;20053;-69
2021/04/03 07:20:19;;;;;;;21.73;5.22;;;3.30;99.90;;;;;;5051027;28;20464;-69
2021/04/03 07:23:03;;;;;;;34.78;5.70;;;3.40;99.90;;;;;;5037136;28;20034;-70
2021/04/03 07:25:36;;;;;;;20.33;5.45;;;3.60;99.90;;;;;;5031721;28;20165;-68
2021/04/03 07:28:02;;;;;;;22.60;5.88;;;3.70;99.90;;;;;;5051387;28;20045;-77
2021/04/03 07:30:39;;;;;;;26.33;4.85;;;4.00;99.90;;;;;;5054756;28;20037;-67
2021/04/03 07:33:22;;;;;;;30.42;6.70;;;4.10;99.90;;;;;;5061383;28;20068;-69
2021/04/03 07:35:59;;;;;;;22.27;6.30;;;4.10;99.90;;;;;;5043215;28;20033;-68
2021/04/03 07:38:45;;;;;;;25.83;5.65;;;4.30;99.90;;;;;;5064562;28;20037;-69
2021/04/03 07:41:10;;;;;;;25.23;5.72;;;4.10;99.90;;;;;;5061542;28;20056;-68
2021/04/03 07:43:41;;;;;;;;;;;4.10;99.90;;;;;;5040604;28;20436;-67
2021/04/03 07:46:10;;;;;;;27.00;5.63;;;4.10;99.90;;;;;;5037316;28;19916;-69
2021/04/03 07:48:51;;;;;;;27.45;6.38;;;4.10;99.90;;;;;;5045191;28;20068;-68
2021/04/03 07:51:39;;;;;;;26.60;6.30;;;4.40;99.90;;;;;;5045863;28;20087;-67
2021/04/03 07:54:11;;;;;;;25.42;5.75;;;5.20;99.90;;;;;;5029328;28;20142;-70
2021/04/03 07:56:51;;;;;;;22.20;5.93;;;5.70;99.90;;;;;;5031184;28;20045;-69
2021/04/03 07:59:18;;;;;;;31.08;6.63;;;5.80;99.00;;;;;;5037909;28;20478;-68
2021/04/03 08:01:47;;;;;;;31.52;7.68;;;5.90;98.30;;;;;;5018286;28;20565;-70
2021/04/03 08:04:13;;;;;;;30.15;5.45;;;5.60;99.10;;;;;;4999221;28;20093;-73
2021/04/03 08:06:40;;;;;;;;;;;5.50;99.90;;;;;;5009604;28;20321;-69
2021/04/03 08:09:10;;;;;;;24.70;4.40;;;5.40;99.70;;;;;;4989433;28;19976;-67
2021/04/03 08:11:36;;;;;;;27.50;6.47;;;6.00;99.50;;;;;;5006004;28;20060;-71
2021/04/03 08:14:02;;;;;;;;;;;6.20;98.80;;;;;;5006645;28;20649;-68
2021/04/03 08:16:31;;;;;;;32.90;6.07;;;6.30;98.00;;;;;;5010623;28;20000;-68
2021/04/03 08:18:59;;;;;;;24.20;5.78;;;6.00;99.10;;;;;;5023372;28;20044;-68
2021/04/03 08:21:28;;;;;;;31.27;8.00;;;6.30;98.90;;;;;;5024922;28;20099;-69
2021/04/03 08:23:57;;;;;;;26.10;7.32;;;6.60;99.40;;;;;;5025385;28;20148;-67
2021/04/03 08:26:25;;;;;;;24.15;6.75;;;7.50;97.50;;;;;;5024078;28;20163;-69
2021/04/03 08:28:52;;;;;;;27.85;6.38;;;7.80;95.30;;;;;;5016494;28;20133;-72
2021/04/03 08:31:20;;;;;;;21.58;5.35;;;8.40;94.60;;;;;;5010901;28;20033;-69
2021/04/03 08:33:53;;;;;;;22.40;6.25;;;7.80;93.90;;;;;;5029351;28;20136;-69
2021/04/03 08:36:24;;;;;;;27.88;5.63;;;6.60;96.10;;;;;;5030871;28;20038;-70
2021/04/03 08:38:51;;;;;;;33.38;8.10;;;6.50;98.90;;;;;;5017048;28;20116;-69
2021/04/03 08:41:19;;;;;;;27.13;7.43;;;6.30;97.40;;;;;;5009347;28;20038;-69
2021/04/03 08:43:46;;;;;;;31.45;6.38;;;6.10;97.90;;;;;;5010463;28;20077;-67
2021/04/03 08:46:14;;;;;;;19.65;5.75;;;5.80;98.90;;;;;;5017466;28;20037;-68
2021/04/03 08:48:44;;;;;;;28.88;7.13;;;5.80;99.80;;;;;;5031200;28;20075;-69
2021/04/03 08:51:11;;;;;;;30.63;6.53;;;6.00;99.90;;;;;;5035327;28;20045;-68
2021/04/03 08:53:39;;;;;;;32.03;6.63;;;5.80;99.40;;;;;;5028954;28;20037;-68
2021/04/03 08:56:05;;;;;;;19.20;6.13;;;5.60;99.90;;;;;;5030460;28;20048;-68
2021/04/03 08:58:31;;;;;;;44.22;7.63;;;5.60;99.70;;;;;;5009860;28;20046;-67
2021/04/03 09:00:57;;;;;;;;;;;5.50;99.80;;;;;;5001841;28;20037;-68
2021/04/03 09:03:23;;;;;;;33.92;11.57;;;5.80;99.90;;;;;;5061934;28;19956;-72
2021/04/03 09:05:49;;;;;;;28.38;6.50;;;6.00;99.90;;;;;;5044126;28;20383;-70
2021/04/03 09:08:22;;;;;;;21.10;5.05;;;6.10;98.20;;;;;;5034346;28;20037;-69
2021/04/03 09:10:53;;;;;;;20.95;5.53;;;5.60;99.30;;;;;;5024380;28;20046;-67
2021/04/03 09:13:20;;;;;;;25.08;5.90;;;5.30;99.90;;;;;;5056081;28;20603;-67
2021/04/03 09:15:47;;;;;;;20.48;5.18;;;5.90;99.90;;;;;;5019723;28;20052;-67
2021/04/03 09:18:14;;;;;;;21.08;5.32;;;6.10;99.20;;;;;;5026182;28;20073;-69
2021/04/03 09:20:48;;;;;;;26.23;5.95;;;6.10;98.90;;;;;;5044403;28;20108;-67
2021/04/03 09:23:16;;;;;;;20.85;5.70;;;6.10;98.30;;;;;;5027413;28;20144;-69
2021/04/03 09:25:44;;;;;;;21.30;5.82;;;6.10;99.90;;;;;;5028973;28;20096;-67
2021/04/03 09:28:12;;;;;;;25.75;6.18;;;6.10;99.90;;;;;;5034336;28;20053;-69
2021/04/03 09:30:42;;;;;;;29.63;6.45;;;6.10;99.90;;;;;;5043899;28;20037;-69
2021/04/03 09:33:26;;;;;;;19.25;4.97;;;6.40;99.20;;;;;;5044095;28;20037;-69
2021/04/03 09:36:06;;;;;;;23.95;5.25;;;6.40;99.00;;;;;;5044204;28;20052;-68
2021/04/03 09:38:34;;;;;;;22.83;5.85;;;6.70;97.60;;;;;;5044060;28;20041;-69
2021/04/03 09:41:01;;;;;;;23.35;5.57;;;6.70;97.40;;;;;;5035294;28;20041;-68
2021/04/03 09:43:40;;;;;;;26.67;6.53;;;6.60;98.70;;;;;;5016449;28;20049;-70
2021/04/03 09:46:06;;;;;;;32.50;5.95;;;6.70;99.40;;;;;;5057829;28;20041;-70
2021/04/03 09:48:32;;;;;;;;;;;6.60;98.10;;;;;;5023860;28;20530;-68
2021/04/03 09:50:57;;;;;;;17.35;5.88;;;6.40;97.70;;;;;;5032082;28;19918;-69
2021/04/03 09:53:27;;;;;;;;;;;6.40;98.00;;;;;;5024877;28;20072;-68
2021/04/03 09:55:53;;;;;;;19.58;5.25;;;6.50;97.20;;;;;;5024772;28;19918;-68
2021/04/03 09:58:20;;;;;;;;;;;6.60;97.60;;;;;;5044508;28;20042;-70
2021/04/03 10:00:59;;;;;;;25.25;6.20;;;6.40;97.60;;;;;;5028191;28;19925;-69
2021/04/03 10:03:25;;;;;;;23.42;6.85;;;6.40;96.90;;;;;;5025071;28;20584;-70
2021/04/03 10:05:54;;;;;;;;;;;6.20;97.10;;;;;;5029642;28;20030;-67
2021/04/03 10:08:20;;;;;;;21.33;6.35;;;6.20;98.90;;;;;;5028670;28;19967;-67
2021/04/03 10:10:45;;;;;;;;;;;6.20;98.50;;;;;;5027857;28;20045;-71
2021/04/03 10:13:11;;;;;;;24.00;6.00;;;6.50;98.90;;;;;;5025896;28;19917;-69
2021/04/03 10:15:37;;;;;;;;;;;6.20;97.40;;;;;;5014395;28;20037;-71
2021/04/03 10:18:04;;;;;;;30.02;6.10;;;6.20;97.50;;;;;;5041822;28;19932;-70
2021/04/03 10:20:30;;;;;;;21.25;7.00;;;6.20;97.90;;;;;;5023278;28;20068;-70
2021/04/03 10:22:55;;;;;;;;;;;6.10;98.10;;;;;;5024560;28;20064;-69
2021/04/03 10:25:21;;;;;;;26.23;6.65;;;6.10;97.80;;;;;;5020241;28;20401;-70
2021/04/03 10:27:48;;;;;;;22.55;7.00;;;6.00;97.30;;;;;;5026526;28;20044;-69
2021/04/03 10:30:14;;;;;;;21.35;6.63;;;5.80;98.20;;;;;;5027697;28;20501;-67
2021/04/03 10:32:40;;;;;;;25.45;7.93;;;6.00;98.10;;;;;;5015913;28;20041;-70
2021/04/03 10:35:07;;;;;;;21.45;6.00;;;6.20;98.00;;;;;;5024939;28;20045;-69
2021/04/03 10:37:35;;;;;;;21.38;6.70;;;6.30;97.10;;;;;;5059875;28;20052;-68
2021/04/03 10:40:00;;;;;;;19.15;6.13;;;6.20;97.00;;;;;;5043664;28;20045;-68
2021/04/03 10:42:26;;;;;;;;;;;6.50;98.40;;;;;;5026748;28;20048;-70
2021/04/03 10:44:53;;;;;;;18.40;5.95;;;6.40;96.80;;;;;;5023490;28;19928;-68
2021/04/03 10:47:19;;;;;;;16.15;5.53;;;6.50;97.10;;;;;;5050685;28;20048;-68
2021/04/03 10:49:44;;;;;;;;;;;6.80;96.10;;;;;;5043781;28;20042;-68
2021/04/03 10:52:10;;;;;;;12.13;5.07;;;6.90;95.40;;;;;;5027597;28;19948;-69
2021/04/03 10:54:35;;;;;;;;;;;6.70;95.30;;;;;;5026467;28;20126;-66
2021/04/03 10:57:01;;;;;;;25.35;6.28;;;6.40;94.50;;;;;;5027662;28;20000;-68
2021/04/03 10:59:27;;;;;;;;;;;6.40;95.50;;;;;;5043654;28;20044;-68
2021/04/03 11:01:53;;;;;;;14.88;5.18;;;7.00;96.80;;;;;;5025840;28;19924;-66
2021/04/03 11:04:18;;;;;;;;;;;7.10;95.10;;;;;;5043629;28;20041;-67
2021/04/03 11:06:45;;;;;;;22.30;5.15;;;7.00;95.70;;;;;;5027323;28;19952;-65
2021/04/03 11:09:10;;;;;;;14.23;5.07;;;6.80;94.80;;;;;;5024487;28;20109;-66
2021/04/03 11:11:36;;;;;;;;;;;6.70;94.40;;;;;;5021484;28;20128;-66
2021/04/03 11:14:01;;;;;;;12.73;4.93;;;6.50;94.40;;;;;;5029564;28;20281;-68
2021/04/03 11:16:29;;;;;;;;;;;6.50;94.80;;;;;;5028709;28;20120;-69
2021/04/03 11:18:55;;;;;;;18.13;5.35;;;6.80;94.50;;;;;;5026907;28;19924;-68
2021/04/03 11:21:21;;;;;;;16.27;4.65;;;6.60;93.80;;;;;;5026320;28;20033;-69
2021/04/03 11:23:49;;;;;;;;;;;6.60;93.30;;;;;;5026965;28;20038;-68
2021/04/03 11:26:15;;;;;;;14.15;5.30;;;6.40;93.90;;;;;;5028389;28;19917;-70
2021/04/03 11:28:41;;;;;;;;;;;6.60;94.80;;;;;;5026744;28;20622;-67
2021/04/03 11:31:07;;;;;;;15.65;4.88;;;6.40;95.10;;;;;;5040286;28;19917;-67
2021/04/03 11:33:33;;;;;;;;;;;6.40;94.40;;;;;;5026866;28;20095;-70
2021/04/03 11:35:58;;;;;;;19.90;4.97;;;6.70;94.30;;;;;;5059536;28;19917;-70
2021/04/03 11:38:24;;;;;;;;;;;6.90;94.20;;;;;;5027604;28;20052;-68
2021/04/03 11:40:50;;;;;;;22.15;5.25;;;7.20;93.30;;;;;;5026459;28;20518;-70
2021/04/03 11:43:17;;;;;;;16.90;5.70;;;7.50;95.00;;;;;;5026088;28;20041;-68
2021/04/03 11:45:43;;;;;;;15.45;6.60;;;7.70;93.70;;;;;;5025438;28;20049;-70
2021/04/03 11:48:09;;;;;;;;;;;7.80;94.30;;;;;;5026909;28;20701;-67
2021/04/03 11:50:35;;;;;;;10.15;4.10;;;7.50;90.80;;;;;;5026437;28;19921;-69
2021/04/03 11:53:01;;;;;;;;;;;7.20;92.40;;;;;;5026226;28;20517;-69
2021/04/03 11:55:27;;;;;;;13.25;4.97;;;6.90;92.40;;;;;;5025809;28;19921;-71
2021/04/03 11:57:55;;;;;;;15.70;4.78;;;7.00;92.80;;;;;;5026615;28;20044;-68
2021/04/03 12:00:21;;;;;;;20.42;4.82;;;7.20;91.60;;;;;;5042101;28;20747;-67
2021/04/03 12:02:48;;;;;;;15.73;5.28;;;7.30;91.80;;;;;;5042994;28;20076;-68
2021/04/03 12:05:14;;;;;;;14.80;4.80;;;7.40;90.40;;;;;;5029970;28;20041;-67
2021/04/03 12:07:41;;;;;;;9.75;3.50;;;7.40;90.70;;;;;;5046241;28;20037;-70
2021/04/03 12:10:11;;;;;;;14.60;4.63;;;7.30;89.60;;;;;;5029364;28;20041;-70
2021/04/03 12:12:39;;;;;;;13.13;4.40;;;7.30;90.20;;;;;;5029356;28;20045;-68
2021/04/03 12:15:10;;;;;;;20.05;4.97;;;7.30;90.20;;;;;;5028164;28;20041;-67
2021/04/03 12:17:37;;;;;;;12.98;3.88;;;7.50;90.50;;;;;;5038778;28;20128;-69
2021/04/03 12:20:12;;;;;;;10.02;5.20;;;7.80;89.60;;;;;;5037371;28;20038;-67
2021/04/03 12:22:38;;;;;;;8.07;3.00;;;7.80;90.10;;;;;;5024839;28;20041;-69
2021/04/03 12:25:04;;;;;;;;;;;7.80;87.70;;;;;;5027058;28;20346;-69
2021/04/03 12:27:30;;;;;;;8.48;3.10;;;7.90;82.10;;;;;;5018362;28;19917;-67
2021/04/03 12:29:56;;;;;;;;;;;8.00;87.30;;;;;;5061379;28;20403;-69
2021/04/03 12:32:23;;;;;;;5.65;2.50;;;8.10;85.10;;;;;;5046569;28;19921;-70
2021/04/03 12:34:49;;;;;;;;;;;8.10;80.10;;;;;;5029870;28;20048;-70
2021/04/03 12:37:16;;;;;;;6.32;2.40;;;8.20;76.80;;;;;;5046415;28;19943;-69
2021/04/03 12:39:42;;;;;;;5.68;2.20;;;8.20;76.50;;;;;;5037619;28;20052;-69
2021/04/03 12:42:09;;;;;;;9.43;2.63;;;8.10;73.00;;;;;;5061863;28;20041;-67
2021/04/03 12:44:35;;;;;;;;;;;8.10;77.60;;;;;;5046680;28;20046;-68
2021/04/03 12:47:02;;;;;;;7.45;3.30;;;8.20;76.40;;;;;;5045658;28;19997;-71
2021/04/03 12:49:28;;;;;;;9.15;3.60;;;8.10;77.40;;;;;;5045897;28;20056;-67
2021/04/03 12:51:54;;;;;;;;;;;8.10;78.30;;;;;;5045789;28;20068;-68
2021/04/03 12:54:21;;;;;;;10.32;3.20;;;8.20;80.80;;;;;;5028839;28;19925;-70
2021/04/03 12:56:48;;;;;;;11.18;3.60;;;8.40;77.80;;;;;;5045766;28;20043;-69
2021/04/03 12:59:13;;;;;;;7.18;3.08;;;8.20;79.40;;;;;;5045568;28;20075;-71
2021/04/03 13:01:39;;;;;;;;;;;8.10;76.50;;;;;;5044515;28;20127;-70
2021/04/03 13:04:05;;;;;;;12.98;2.75;;;8.30;74.50;;;;;;5036643;28;20437;-71